createdAt,value
2022-11-15T00:06:12.996Z,17.20
2022-11-15T00:16:16.729Z,18.00
2022-11-15T00:26:21.989Z,17.90
2022-11-15T00:36:25.868Z,17.80
2022-11-15T00:46:31.265Z,18.10
2022-11-15T00:56:35.224Z,17.90
2022-11-15T01:06:40.470Z,18.50
2022-11-15T01:16:44.191Z,18.20
2022-11-15T01:26:49.394Z,17.90
2022-11-15T01:36:53.336Z,17.70
2022-11-15T01:46:58.994Z,17.30
2022-11-15T01:57:05.036Z,17.60
2022-11-15T02:07:13.436Z,18.10
2022-11-15T02:17:33.400Z,18.20
2022-11-15T02:28:21.344Z,18.20
2022-11-15T02:38:35.983Z,18.20
2022-11-15T02:48:40.582Z,17.90
2022-11-15T02:59:03.320Z,18.00
2022-11-15T03:09:13.609Z,17.80
2022-11-15T03:19:24.418Z,17.30
2022-11-15T03:29:32.668Z,17.50
2022-11-15T03:39:38.225Z,17.70
2022-11-15T03:49:47.102Z,17.80
2022-11-15T03:59:52.313Z,17.70
2022-11-15T04:10:05.206Z,18.10
2022-11-15T04:20:30.850Z,18.10
2022-11-15T04:30:34.633Z,18.20
2022-11-15T04:40:42.417Z,18.30
2022-11-15T04:50:46.422Z,18.40
2022-11-15T05:00:51.536Z,18.40
2022-11-15T05:10:55.212Z,18.50
2022-11-15T05:21:05.909Z,18.30
2022-11-15T05:31:11.909Z,17.90
2022-11-15T05:41:23.080Z,17.60
2022-11-15T05:51:27.402Z,17.50
2022-11-15T06:01:32.821Z,17.50
2022-11-15T06:11:36.673Z,17.70
2022-11-15T06:21:41.788Z,17.70
2022-11-15T06:31:45.578Z,17.60
2022-11-15T06:41:50.848Z,17.80
2022-11-15T06:51:54.618Z,17.70
2022-11-15T07:02:00.529Z,17.70
2022-11-15T07:12:07.639Z,17.90
2022-11-15T07:22:13.241Z,17.90
2022-11-15T07:32:16.925Z,18.10
2022-11-15T07:42:39.669Z,18.30
2022-11-15T07:52:43.405Z,18.70
2022-11-15T08:02:48.814Z,19.20
2022-11-15T08:13:00.884Z,19.10
2022-11-15T08:23:08.147Z,19.10
2022-11-15T08:33:13.989Z,19.30
2022-11-15T08:43:19.320Z,18.90
2022-11-15T08:53:23.225Z,18.90
2022-11-15T09:03:36.994Z,19.40
2022-11-15T09:13:41.139Z,20.20
2022-11-15T09:23:46.126Z,20.30
2022-11-15T09:33:49.906Z,20.60
2022-11-15T09:44:04.645Z,21.50
2022-11-15T10:04:41.781Z,21.40
2022-11-15T10:14:50.284Z,21.70
2022-11-15T10:25:18.224Z,21.50
2022-11-15T10:35:25.870Z,21.60
2022-11-15T10:45:35.659Z,21.60
2022-11-15T10:55:40.173Z,21.80
2022-11-15T11:05:45.237Z,21.80
2022-11-15T11:15:54.936Z,23.30
2022-11-15T11:26:18.383Z,22.60
2022-11-15T11:36:29.107Z,22.10
2022-11-15T11:46:55.022Z,22.20
2022-11-15T11:57:02.471Z,22.30
2022-11-15T12:07:16.854Z,22.50
2022-11-15T12:17:25.275Z,22.50
2022-11-15T12:27:35.768Z,22.90
2022-11-15T12:37:53.149Z,23.40
2022-11-15T12:48:14.939Z,23.70
2022-11-15T12:58:41.127Z,23.80
2022-11-15T13:08:52.244Z,23.10
2022-11-15T13:18:57.048Z,23.40
2022-11-15T13:29:03.141Z,23.10
2022-11-15T13:39:28.524Z,23.30
2022-11-15T13:49:35.118Z,23.40
2022-11-15T13:59:46.815Z,23.40
2022-11-15T14:09:53.030Z,22.80
2022-11-15T14:19:57.209Z,22.60
2022-11-15T14:30:02.767Z,22.70
2022-11-15T14:40:10.932Z,22.80
2022-11-15T14:50:18.326Z,23.10
2022-11-15T15:00:22.469Z,24.40
2022-11-15T15:10:40.079Z,23.60
2022-11-15T15:20:46.853Z,23.10
2022-11-15T15:30:52.647Z,21.90
2022-11-15T15:40:56.898Z,21.60
2022-11-15T15:51:06.865Z,21.10
2022-11-15T16:01:14.892Z,20.80
2022-11-15T16:11:20.056Z,21.00
2022-11-15T16:21:24.095Z,21.00
2022-11-15T16:31:30.180Z,21.80
2022-11-15T16:41:33.975Z,21.80
2022-11-15T16:51:39.896Z,21.70
2022-11-15T17:01:51.042Z,21.60
2022-11-15T17:11:56.108Z,21.50
2022-11-15T17:21:59.811Z,21.40
2022-11-15T17:32:04.868Z,21.30
2022-11-15T17:42:08.484Z,21.20
2022-11-15T17:52:14.023Z,21.20
2022-11-15T18:02:17.875Z,21.00
2022-11-15T18:12:23.031Z,20.80
2022-11-15T18:22:26.834Z,20.60
2022-11-15T18:32:31.904Z,20.60
2022-11-15T18:42:35.757Z,20.50
2022-11-15T18:52:41.159Z,20.50
2022-11-15T19:02:44.989Z,20.40
2022-11-15T19:12:50.581Z,20.30
2022-11-15T19:22:54.269Z,20.20
2022-11-15T19:32:59.465Z,20.10
2022-11-15T19:43:03.334Z,20.00
2022-11-15T19:53:08.783Z,19.90
2022-11-15T20:03:12.556Z,19.80
2022-11-15T20:13:17.657Z,19.80
2022-11-15T20:23:22.592Z,19.70
2022-11-15T20:33:28.844Z,19.70
2022-11-15T20:43:32.695Z,19.50
2022-11-15T20:53:42.257Z,19.40
2022-11-15T21:03:45.998Z,19.40
2022-11-15T21:13:51.046Z,19.30
2022-11-15T21:23:55.435Z,19.20
2022-11-15T21:34:02.176Z,19.10
2022-11-15T21:44:07.163Z,18.80
2022-11-15T21:54:12.843Z,18.80
2022-11-15T22:04:17.051Z,19.20
2022-11-15T22:14:22.264Z,18.70
2022-11-15T22:24:26.132Z,18.80
2022-11-15T22:34:31.137Z,18.70
2022-11-15T22:44:35.025Z,18.70
2022-11-15T22:54:40.208Z,19.00
2022-11-15T23:04:43.824Z,19.00
2022-11-15T23:14:49.112Z,18.90
2022-11-15T23:24:53.477Z,18.80
2022-11-15T23:34:58.649Z,19.00
2022-11-15T23:45:02.367Z,19.30
2022-11-15T23:55:08.401Z,19.40
